Time;durP1;ratioP1;P1;durP2;ratioP2;P2;SDS_P1;SDS_P2;PMS_P1;PMS_P2;Temp;Humidity;BMP_temperature;BMP_pressure;BME280_temperature;BME280_humidity;BME280_pressure;Samples;Min_cycle;Max_cycle;Signal;HPM_P1;HPM_P2
2022/02/05 00:01:45;;;;;;;;;5.00;5.00;;;;;10.02;52.80;101692.41;2029607;28;46980;-57
2022/02/05 00:02:55;;;;;;;;;7.25;6.00;;;;;10.02;53.10;101684.44;2022876;29;47665;-56
2022/02/05 00:04:01;;;;;;;;;5.00;5.00;;;;;10.01;53.20;101685.34;2030459;29;47787;-55
2022/02/05 00:05:02;;;;;;;;;6.00;5.00;;;;;10.02;52.88;101687.09;2029877;29;47621;-56
2022/02/05 00:06:05;;;;;;;;;6.50;4.50;;;;;10.03;53.24;101688.88;2022982;29;46628;-56
2022/02/05 00:07:07;;;;;;;;;6.25;5.25;;;;;10.02;53.33;101695.94;2022040;29;48281;-57
2022/02/05 00:09:44;;;;;;;;;6.25;6.25;;;;;10.00;53.16;101692.41;2029856;29;45739;-55
2022/02/05 00:12:28;;;;;;;;;4.00;3.50;;;;;10.02;53.32;101693.28;2046485;28;47639;-54
2022/02/05 00:14:51;;;;;;;;;8.00;7.00;;;;;10.03;53.35;101697.69;2054372;28;48178;-55
2022/02/05 00:42:05;;;;;;;;;8.00;6.00;;;;;9.94;53.40;101702.19;2069484;28;47171;-57
2022/02/05 00:43:12;;;;;;;;;4.75;4.75;;;;;9.93;53.43;101697.78;2067194;28;46299;-58
2022/02/05 00:44:12;;;;;;;;;8.60;6.40;;;;;9.93;53.38;101693.34;2070745;28;47670;-56
2022/02/05 00:45:13;;;;;;;;;4.75;4.25;;;;;9.91;53.09;101695.13;2069412;28;48029;-57
2022/02/05 00:46:14;;;;;;;;;5.00;5.00;;;;;9.92;53.21;101696.88;2054072;28;48102;-57
2022/02/05 00:47:16;;;;;;;;;4.25;4.25;;;;;9.92;53.34;101702.19;2053330;28;47615;-55
2022/02/05 00:48:18;;;;;;;;;4.50;4.25;;;;;9.91;53.31;101700.44;2070815;28;47993;-57
2022/02/05 00:49:19;;;;;;;;;5.75;5.75;;;;;9.92;53.46;101696.88;2069767;28;47893;-55
2022/02/05 00:50:23;;;;;;;;;5.00;5.00;;;;;9.92;53.52;101698.66;2070751;28;46205;-56
2022/02/05 00:52:25;;;;;;;;;6.00;6.00;;;;;9.93;53.53;101698.66;2070525;28;47586;-57
2022/02/05 00:53:33;;;;;;;;;4.75;4.00;;;;;9.92;53.46;101699.53;2069011;28;47809;-55
2022/02/05 00:54:33;;;;;;;;;4.75;4.00;;;;;9.93;53.52;101701.31;2073018;28;47646;-56
2022/02/05 00:55:37;;;;;;;;;5.00;5.00;;;;;9.93;53.53;101696.00;2087850;28;47536;-56
2022/02/05 00:57:45;;;;;;;;;6.25;4.75;;;;;9.92;53.33;101696.00;2086046;28;47417;-55
2022/02/05 00:58:45;;;;;;;;;5.00;4.50;;;;;9.91;53.61;101696.84;2087812;28;47615;-57
2022/02/05 00:59:46;;;;;;;;;3.33;3.33;;;;;9.91;53.28;101691.56;2080553;28;48256;-53
2022/02/05 01:00:46;;;;;;;;;5.00;4.67;;;;;9.89;53.42;101688.03;2088047;28;48049;-54
2022/02/05 01:01:48;;;;;;;;;7.67;7.67;;;;;9.89;53.27;101699.53;2081831;28;47787;-55
2022/02/05 01:02:48;;;;;;;;;5.00;3.50;;;;;9.86;53.60;101691.59;2096155;28;47943;-55
2022/02/05 01:03:49;;;;;;;;;7.00;3.00;;;;;9.85;53.44;101694.25;2086967;28;47869;-57
2022/02/05 01:04:49;;;;;;;;;7.67;4.67;;;;;9.85;53.68;101694.25;2086893;28;47675;-56
2022/02/05 01:05:50;;;;;;;;;9.00;6.00;;;;;9.85;53.63;101692.47;2086370;28;50995;-57
2022/02/05 01:06:50;;;;;;;;;7.00;3.33;;;;;9.84;53.45;101697.78;2087656;28;47739;-54
2022/02/05 01:07:56;;;;;;;;;3.33;3.00;;;;;9.84;53.56;101700.44;2081504;28;47322;-58
2022/02/05 01:08:57;;;;;;;;;4.75;4.75;;;;;9.83;53.63;101701.31;2080217;28;47879;-57
2022/02/05 01:09:57;;;;;;;;;6.00;5.00;;;;;9.81;53.42;101701.34;2085509;28;47189;-55
2022/02/05 01:10:58;;;;;;;;;5.33;4.00;;;;;9.81;53.79;101703.09;2093911;28;45536;-56
2022/02/05 01:12:01;;;;;;;;;3.67;3.67;;;;;9.80;53.55;101712.81;2087974;28;47265;-53
2022/02/05 01:13:06;;;;;;;;;4.00;4.00;;;;;9.80;53.65;101701.34;2085766;28;47494;-55
2022/02/05 01:14:09;;;;;;;;;4.50;4.00;;;;;9.80;53.69;101706.66;2084095;28;48180;-57
2022/02/05 01:15:11;;;;;;;;;3.75;3.75;;;;;9.81;53.84;101705.75;2085827;28;48157;-54
2022/02/05 01:17:37;;;;;;;;;2.00;2.00;;;;;9.81;53.68;101705.75;2078825;28;48386;-56
2022/02/05 01:18:41;;;;;;;;;6.75;4.75;;;;;9.81;53.81;101708.41;2084714;28;48266;-56
2022/02/05 01:21:08;;;;;;;;;6.00;3.50;;;;;9.80;53.84;101714.59;2085478;28;46636;-56
2022/02/05 01:22:11;;;;;;;;;5.00;3.50;;;;;9.78;53.82;101717.22;2085476;28;46209;-57
2022/02/05 01:23:15;;;;;;;;;6.00;5.00;;;;;9.79;53.69;101712.84;2083630;28;47195;-55
2022/02/05 01:24:18;;;;;;;;;5.00;5.00;;;;;9.79;53.86;101721.66;2085349;28;47374;-58
2022/02/05 01:25:23;;;;;;;;;4.75;3.75;;;;;9.80;53.67;101722.56;2088587;28;47694;-52
2022/02/05 01:26:33;;;;;;;;;4.00;4.00;;;;;9.78;53.82;101725.19;2087816;28;47708;-57
2022/02/05 01:27:48;;;;;;;;;3.25;3.25;;;;;9.79;53.84;101728.75;2081355;28;48065;-58
2022/02/05 01:28:55;;;;;;;;;5.00;5.00;;;;;9.77;53.66;101734.00;2072732;28;47662;-57
2022/02/05 01:30:11;;;;;;;;;5.00;3.50;;;;;9.78;53.79;101730.47;2087496;28;48171;-54
2022/02/05 01:31:11;;;;;;;;;7.00;5.25;;;;;9.79;53.68;101728.75;2060632;28;47854;-55
2022/02/05 01:32:18;;;;;;;;;6.00;4.00;;;;;9.79;53.76;101736.69;2071254;28;47284;-55
2022/02/05 01:34:31;;;;;;;;;2.75;2.75;;;;;9.77;53.65;101734.00;2077429;28;47838;-54
2022/02/05 01:35:54;;;;;;;;;3.75;3.75;;;;;9.77;53.93;101726.06;2077490;28;47354;-54
2022/02/05 01:50:12;;;;;;;;;4.00;4.00;;;;;9.69;53.82;101744.66;2078111;28;47696;-59
2022/02/05 01:56:50;;;;;;;;;3.50;3.00;;;;;9.71;53.94;101749.94;2080770;28;47817;-56
2022/02/05 01:57:58;;;;;;;;;3.00;2.25;;;;;9.71;53.98;101753.47;2079134;28;47675;-58
2022/02/05 02:05:12;;;;;;;;;0.75;0.75;;;;;9.68;53.89;101756.16;2079723;28;47132;-55
2022/02/05 02:11:38;;;;;;;;;4.00;3.00;;;;;9.67;53.76;101767.63;2055108;28;47631;-56
2022/02/05 02:12:43;;;;;;;;;3.00;3.00;;;;;9.67;53.85;101764.97;2054891;28;47663;-55
2022/02/05 02:15:10;;;;;;;;;4.00;2.00;;;;;9.68;53.98;101769.41;2040904;28;46656;-55
2022/02/05 02:16:31;;;;;;;;;3.75;3.00;;;;;9.68;53.66;101769.41;2039028;28;48676;-59
2022/02/05 02:21:39;;;;;;;;;3.50;3.50;;;;;9.69;53.85;101762.31;2031397;29;47862;-57
2022/02/05 02:22:48;;;;;;;;;2.25;2.25;;;;;9.68;53.72;101773.81;2031386;29;47717;-57
2022/02/05 02:28:07;;;;;;;;;4.00;3.00;;;;;9.67;54.24;101770.28;2031161;29;47306;-55
2022/02/05 02:29:16;;;;;;;;;3.50;3.00;;;;;9.67;53.76;101778.25;2031168;29;47441;-54
2022/02/05 02:30:22;;;;;;;;;3.00;3.00;;;;;9.67;53.81;101766.75;2038549;28;47842;-55
2022/02/05 02:31:27;;;;;;;;;1.00;1.00;;;;;9.66;54.03;101771.16;2032877;28;47493;-57
2022/02/05 02:32:29;;;;;;;;;3.25;3.00;;;;;9.67;53.94;101777.34;2031415;29;48335;-55
2022/02/05 02:33:34;;;;;;;;;5.00;3.40;;;;;9.67;53.90;101767.63;2035340;28;47261;-56
2022/02/05 02:34:40;;;;;;;;;2.50;2.25;;;;;9.68;53.81;101772.03;2039167;28;47263;-55
2022/02/05 02:35:45;;;;;;;;;3.75;3.25;;;;;9.68;53.80;101777.34;2038987;28;47523;-55
2022/02/05 02:36:56;;;;;;;;;6.00;3.25;;;;;9.68;53.90;101776.47;2040551;28;47990;-57
2022/02/05 02:38:09;;;;;;;;;4.75;3.00;;;;;9.68;53.69;101787.06;2039461;28;47834;-55
2022/02/05 02:39:18;;;;;;;;;3.00;3.00;;;;;9.68;53.84;101787.06;2039150;28;47872;-54
2022/02/05 02:41:38;;;;;;;;;5.00;3.50;;;;;9.67;53.84;101788.84;2039181;28;47825;-55
2022/02/05 02:42:43;;;;;;;;;3.50;3.25;;;;;9.68;53.88;101795.03;2031229;29;47634;-55
2022/02/05 02:43:44;;;;;;;;;4.00;4.00;;;;;9.67;53.85;101786.19;2031155;28;46853;-55
2022/02/05 02:44:44;;;;;;;;;3.00;3.00;;;;;9.67;53.92;101782.66;2039115;28;47376;-54
2022/02/05 02:45:46;;;;;;;;;2.67;2.67;;;;;9.67;53.85;101782.66;2039454;28;47887;-55
2022/02/05 02:46:46;;;;;;;;;3.80;3.20;;;;;9.65;53.83;101782.63;2032612;28;47635;-54
2022/02/05 02:47:46;;;;;;;;;2.33;2.00;;;;;9.66;53.59;101778.25;2047010;28;47755;-54
2022/02/05 02:48:48;;;;;;;;;4.00;2.00;;;;;9.65;53.54;101779.09;2062971;28;48163;-57
2022/02/05 02:57:30;;;;;;;;;3.00;2.75;;;;;9.60;53.67;101788.84;2088540;28;47999;-54
2022/02/05 02:58:31;;;;;;;;;2.00;2.00;;;;;9.60;53.94;101796.78;2088601;28;48131;-56
2022/02/05 02:59:47;;;;;;;;;4.50;4.50;;;;;9.60;53.95;101799.44;2088492;28;47750;-57
2022/02/05 03:00:54;;;;;;;;;4.25;3.00;;;;;9.59;53.77;101795.91;2096598;28;47802;-55
2022/02/05 03:02:01;;;;;;;;;3.00;3.00;;;;;9.59;53.90;101798.53;2097241;28;48419;-56
2022/02/05 03:03:01;;;;;;;;;6.00;3.75;;;;;9.59;53.72;101795.91;2087914;28;47886;-56
2022/02/05 03:04:02;;;;;;;;;3.33;2.00;;;;;9.59;53.71;101795.00;2086244;28;47957;-56
2022/02/05 03:05:03;;;;;;;;;2.00;2.00;;;;;9.60;53.75;101791.47;2088915;28;47159;-55
2022/02/05 03:06:03;;;;;;;;;3.00;3.00;;;;;9.60;53.82;101797.66;2079124;28;47871;-58
2022/02/05 03:07:04;;;;;;;;;2.67;2.67;;;;;9.60;53.78;101799.44;2079060;28;47596;-55
2022/02/05 03:08:06;;;;;;;;;2.75;2.75;;;;;9.60;53.78;101794.13;2083549;28;47885;-56
2022/02/05 03:09:06;;;;;;;;;4.75;3.50;;;;;9.60;53.59;101802.06;2097041;28;47839;-56
2022/02/05 03:10:07;;;;;;;;;2.00;2.00;;;;;9.60;53.76;101800.31;2097143;28;47084;-56
2022/02/05 03:11:07;;;;;;;;;4.50;4.50;;;;;9.60;53.91;101796.78;2096898;28;47860;-55
2022/02/05 03:12:09;;;;;;;;;3.00;3.00;;;;;9.60;53.62;101799.44;2094742;28;47591;-57
2022/02/05 03:13:09;;;;;;;;;1.00;1.00;;;;;9.60;53.84;101804.72;2088364;28;47357;-54
2022/02/05 03:14:09;;;;;;;;;2.67;2.33;;;;;9.60;53.76;101802.06;2088431;28;47452;-55
2022/02/05 03:15:13;;;;;;;;;6.00;3.00;;;;;9.59;53.70;101803.84;2088261;28;47978;-55
2022/02/05 03:16:21;;;;;;;;;3.50;2.00;;;;;9.59;53.86;101806.50;2088457;28;47602;-55
2022/02/05 03:17:25;;;;;;;;;3.75;3.00;;;;;9.59;53.57;101808.25;2088301;28;47816;-56
2022/02/05 03:18:45;;;;;;;;;4.25;2.25;;;;;9.58;53.69;101810.03;2088282;28;47594;-57
2022/02/05 03:19:54;;;;;;;;;3.00;2.25;;;;;9.59;53.81;101810.91;2089814;28;48348;-55
2022/02/05 03:20:55;;;;;;;;;3.50;3.00;;;;;9.59;53.59;101814.44;2088741;28;47590;-57
2022/02/05 03:21:55;;;;;;;;;2.67;2.67;;;;;9.60;53.85;101815.34;2088409;28;47782;-55
2022/02/05 03:22:56;;;;;;;;;2.00;2.00;;;;;9.60;53.78;101812.69;2088386;28;47644;-56
2022/02/05 03:23:56;;;;;;;;;3.67;2.67;;;;;9.59;53.80;101822.41;2094530;28;47426;-55
2022/02/05 03:24:57;;;;;;;;;2.67;2.67;;;;;9.59;53.76;101822.41;2095420;28;47318;-56
2022/02/05 03:25:57;;;;;;;;;2.00;2.00;;;;;9.58;53.67;101815.34;2088270;28;48311;-57
2022/02/05 03:26:58;;;;;;;;;2.00;2.00;;;;;9.59;53.81;101822.41;2091269;28;47825;-55
2022/02/05 03:28:00;;;;;;;;;2.67;2.67;;;;;9.59;53.65;101826.81;2070531;28;46991;-55
2022/02/05 03:29:01;;;;;;;;;2.75;2.50;;;;;9.58;53.75;101823.28;2071057;28;48110;-54
2022/02/05 03:30:02;;;;;;;;;3.25;2.50;;;;;9.57;53.67;101821.53;2091870;28;47289;-51
2022/02/05 03:31:03;;;;;;;;;3.00;3.00;;;;;9.58;53.76;101822.41;2087687;28;47402;-56
2022/02/05 03:32:04;;;;;;;;;5.00;3.00;;;;;9.57;53.94;101816.22;2087685;28;45950;-55
2022/02/05 03:33:04;;;;;;;;;4.25;2.75;;;;;9.58;53.91;101827.69;2096235;28;48360;-52
2022/02/05 03:34:06;;;;;;;;;3.00;3.00;;;;;9.57;53.83;101820.63;2096692;28;47550;-56
2022/02/05 03:35:06;;;;;;;;;3.75;2.25;;;;;9.58;53.90;101812.69;2087011;28;47588;-55
2022/02/05 03:36:07;;;;;;;;;4.00;4.00;;;;;9.58;53.87;101819.75;2086997;28;47721;-56
2022/02/05 03:37:08;;;;;;;;;2.00;2.00;;;;;9.58;53.83;101817.09;2088219;28;47623;-56
2022/02/05 03:38:08;;;;;;;;;5.00;3.00;;;;;9.58;53.90;101831.22;2088279;28;48115;-55
2022/02/05 03:39:09;;;;;;;;;5.00;2.00;;;;;9.58;53.88;101822.41;2093066;28;47755;-54
2022/02/05 03:40:10;;;;;;;;;1.00;1.00;;;;;9.58;54.00;101818.00;2096506;28;47774;-53
2022/02/05 03:41:10;;;;;;;;;3.50;3.00;;;;;9.59;53.87;101825.06;2096799;28;47433;-55
2022/02/05 03:42:11;;;;;;;;;3.00;3.00;;;;;9.58;53.79;101825.94;2096583;28;47623;-57
2022/02/05 03:43:11;;;;;;;;;3.33;2.33;;;;;9.58;53.78;101825.94;2070596;28;47821;-56
2022/02/05 03:44:12;;;;;;;;;2.00;2.00;;;;;9.58;54.18;101835.66;2070779;28;47661;-55
2022/02/05 03:45:14;;;;;;;;;3.00;3.00;;;;;9.57;53.81;101825.94;2091905;28;47689;-56
2022/02/05 03:46:15;;;;;;;;;5.25;3.50;;;;;9.57;53.77;101832.13;2088134;28;47452;-54
2022/02/05 03:47:15;;;;;;;;;2.00;2.00;;;;;9.57;53.79;101837.41;2093661;28;48255;-55
2022/02/05 03:48:16;;;;;;;;;2.67;2.33;;;;;9.58;53.96;101836.53;2096432;28;47739;-57
2022/02/05 03:49:18;;;;;;;;;2.00;2.00;;;;;9.59;53.87;101830.34;2096700;28;47796;-53
2022/02/05 03:50:19;;;;;;;;;1.25;1.25;;;;;9.58;53.83;101831.22;2089287;28;48326;-59
2022/02/05 03:51:19;;;;;;;;;3.00;2.00;;;;;9.58;54.00;101831.22;2088108;28;47363;-57
2022/02/05 03:52:20;;;;;;;;;5.00;3.67;;;;;9.57;53.69;101834.78;2087933;28;47934;-57
2022/02/05 03:53:20;;;;;;;;;4.00;3.00;;;;;9.56;53.83;101825.06;2087704;28;48504;-55
2022/02/05 03:54:24;;;;;;;;;2.00;2.00;;;;;9.56;53.77;101832.13;2088059;28;47824;-55
2022/02/05 03:55:25;;;;;;;;;2.00;2.00;;;;;9.55;53.71;101833.91;2094759;28;47904;-55
2022/02/05 03:56:25;;;;;;;;;1.75;1.75;;;;;9.55;53.88;101833.91;2096546;28;47406;-54
2022/02/05 03:57:26;;;;;;;;;2.00;2.00;;;;;9.55;53.92;101828.59;2096672;28;47717;-56
2022/02/05 03:58:26;;;;;;;;;2.67;1.00;;;;;9.55;54.04;101835.66;2096418;28;47933;-55
2022/02/05 03:59:26;;;;;;;;;3.00;1.33;;;;;9.55;53.76;101831.25;2096621;28;47842;-55
2022/02/05 04:00:27;;;;;;;;;2.00;1.00;;;;;9.54;53.83;101834.78;2094394;28;47667;-55
2022/02/05 04:01:27;;;;;;;;;5.00;4.00;;;;;9.55;53.69;101833.00;2093409;28;47419;-57
2022/02/05 04:02:28;;;;;;;;;3.00;3.00;;;;;9.54;53.70;101840.06;2095887;28;47616;-57
2022/02/05 04:03:28;;;;;;;;;3.67;3.67;;;;;9.54;54.04;101847.16;2096713;28;48417;-55
2022/02/05 04:04:29;;;;;;;;;2.67;2.67;;;;;9.54;53.82;101845.38;2092772;28;47661;-57
2022/02/05 04:05:30;;;;;;;;;2.75;2.00;;;;;9.54;53.96;101837.44;2087355;28;47951;-56
2022/02/05 04:06:30;;;;;;;;;2.00;2.00;;;;;9.54;53.93;101850.69;2062980;28;48117;-57
2022/02/05 04:07:34;;;;;;;;;2.33;2.00;;;;;9.54;53.95;101847.16;2076984;28;48032;-56
2022/02/05 04:08:34;;;;;;;;;2.25;2.25;;;;;9.54;53.82;101844.50;2096306;28;48095;-57
2022/02/05 04:09:41;;;;;;;;;3.00;3.00;;;;;9.53;53.64;101851.56;2089914;28;47307;-57
2022/02/05 04:10:46;;;;;;;;;3.25;2.50;;;;;9.52;53.96;101849.75;2081228;28;47401;-56
2022/02/05 04:16:48;;;;;;;;;3.00;3.00;;;;;9.51;53.70;101847.13;2088287;28;47922;-56
2022/02/05 04:17:48;;;;;;;;;4.25;2.25;;;;;9.49;54.03;101849.78;2082303;28;47796;-55
2022/02/05 04:18:51;;;;;;;;;1.00;1.00;;;;;9.48;54.03;101841.81;2073740;28;47577;-55
2022/02/05 04:19:51;;;;;;;;;5.00;3.00;;;;;9.47;54.11;101840.06;2090377;28;47218;-56
2022/02/05 04:20:52;;;;;;;;;2.33;2.00;;;;;9.48;54.00;101845.34;2096267;28;47281;-57
2022/02/05 04:21:53;;;;;;;;;3.67;2.00;;;;;9.46;53.97;101839.19;2096497;28;47700;-54
2022/02/05 04:22:55;;;;;;;;;2.00;2.00;;;;;9.47;54.09;101846.25;2088544;28;47902;-53
2022/02/05 04:23:56;;;;;;;;;2.00;2.00;;;;;9.47;54.21;101853.31;2087925;28;47381;-56
2022/02/05 04:24:56;;;;;;;;;3.00;3.00;;;;;9.49;54.14;101848.88;2088261;28;48352;-58
2022/02/05 04:25:57;;;;;;;;;2.33;2.33;;;;;9.47;54.10;101848.88;2087421;28;47576;-57
2022/02/05 04:26:57;;;;;;;;;2.00;2.00;;;;;9.48;54.14;101853.31;2086655;28;47505;-57
2022/02/05 04:27:58;;;;;;;;;3.00;2.67;;;;;9.49;53.99;101859.50;2082805;28;48235;-55
2022/02/05 04:28:58;;;;;;;;;3.00;2.00;;;;;9.49;54.18;101854.19;2090976;28;47984;-56
2022/02/05 04:29:58;;;;;;;;;2.00;2.00;;;;;9.48;54.06;101849.78;2091112;28;48003;-59
2022/02/05 04:30:59;;;;;;;;;1.33;1.33;;;;;9.48;54.12;101852.44;2095749;28;47554;-58
2022/02/05 04:31:59;;;;;;;;;1.00;1.00;;;;;9.49;54.28;101846.25;2096516;28;47448;-52
2022/02/05 04:33:00;;;;;;;;;1.67;1.67;;;;;9.49;54.14;101844.47;2096322;28;47826;-56
2022/02/05 04:34:01;;;;;;;;;3.33;3.00;;;;;9.50;54.12;101843.59;2096339;28;47980;-54
2022/02/05 04:35:02;;;;;;;;;5.75;4.25;;;;;9.50;54.20;101840.94;2096226;28;47379;-56
2022/02/05 04:36:04;;;;;;;;;2.00;2.00;;;;;9.50;54.03;101835.63;2096307;28;47423;-55
2022/02/05 04:37:05;;;;;;;;;1.75;1.50;;;;;9.49;53.77;101844.47;2092220;28;48008;-54
2022/02/05 04:38:07;;;;;;;;;2.25;1.50;;;;;9.49;54.06;101833.00;2088181;28;47731;-56
2022/02/05 04:39:14;;;;;;;;;2.50;2.50;;;;;9.47;54.25;101838.28;2079621;28;47905;-51
2022/02/05 04:41:37;;;;;;;;;3.25;2.25;;;;;9.46;54.33;101833.88;2096421;28;47710;-55
2022/02/05 04:42:54;;;;;;;;;2.25;2.00;;;;;9.44;54.27;101841.81;2096396;28;47742;-51
2022/02/05 04:44:16;;;;;;;;;3.00;3.00;;;;;9.45;54.29;101840.06;2080546;28;47381;-56
2022/02/05 04:48:07;;;;;;;;;2.00;2.00;;;;;9.43;54.37;101848.00;2070218;28;48408;-56
2022/02/05 04:56:44;;;;;;;;;1.50;1.50;;;;;9.41;54.54;101846.25;2069903;28;48062;-57
2022/02/05 05:13:32;;;;;;;;;3.33;2.67;;;;;9.30;54.88;101850.66;2038058;28;47257;-54
2022/02/05 05:19:48;;;;;;;;;5.50;2.00;;;;;9.30;54.96;101862.13;2046058;28;48440;-54
2022/02/05 05:20:49;;;;;;;;;1.00;1.00;;;;;9.30;54.98;101867.44;2045783;28;47746;-52
2022/02/05 05:21:49;;;;;;;;;1.00;1.00;;;;;9.30;55.19;101863.91;2046490;28;47194;-57
2022/02/05 05:22:50;;;;;;;;;3.00;3.00;;;;;9.30;54.94;101866.53;2045991;28;47442;-56
2022/02/05 05:23:51;;;;;;;;;1.00;1.00;;;;;9.30;55.18;101869.19;2045629;28;48531;-57
2022/02/05 05:24:51;;;;;;;;;2.00;2.00;;;;;9.29;54.96;101862.13;2046058;28;47799;-54
2022/02/05 05:25:52;;;;;;;;;2.67;2.67;;;;;9.31;55.03;101868.31;2045757;28;47960;-55
2022/02/05 05:26:53;;;;;;;;;2.33;2.33;;;;;9.31;55.16;101863.00;2046083;28;47887;-56
2022/02/05 05:27:53;;;;;;;;;3.00;3.00;;;;;9.31;55.15;101866.53;2023169;29;46296;-56
2022/02/05 05:28:54;;;;;;;;;2.33;2.33;;;;;9.31;55.18;101865.66;2023212;29;47696;-55
2022/02/05 05:29:54;;;;;;;;;2.00;2.00;;;;;9.32;54.97;101864.78;2038645;28;47290;-54
2022/02/05 05:30:55;;;;;;;;;1.67;1.67;;;;;9.31;55.14;101863.88;2045965;28;48153;-55
2022/02/05 05:31:55;;;;;;;;;3.00;3.00;;;;;9.30;55.21;101864.78;2046800;28;47739;-53
2022/02/05 05:32:56;;;;;;;;;3.67;2.00;;;;;9.31;55.13;101870.97;2046949;28;47435;-53
2022/02/05 05:33:56;;;;;;;;;3.67;2.00;;;;;9.30;55.14;101867.44;2039211;28;47443;-55
2022/02/05 05:34:57;;;;;;;;;1.00;1.00;;;;;9.29;55.28;101870.06;2047023;28;47644;-58
2022/02/05 05:35:57;;;;;;;;;4.00;3.00;;;;;9.29;55.06;101868.31;2047606;28;47494;-57
2022/02/05 05:37:00;;;;;;;;;2.67;2.67;;;;;9.26;55.29;101862.97;2047267;28;47732;-56
2022/02/05 05:38:02;;;;;;;;;2.00;2.00;;;;;9.25;55.30;101869.16;2047075;28;47704;-55
2022/02/05 05:39:04;;;;;;;;;1.50;1.00;;;;;9.24;55.29;101867.41;2046877;28;48015;-56
2022/02/05 05:40:07;;;;;;;;;2.00;2.00;;;;;9.23;55.35;101868.28;2051338;28;48048;-55
2022/02/05 05:41:09;;;;;;;;;3.25;2.00;;;;;9.22;55.39;101863.88;2089118;28;47404;-53
2022/02/05 05:42:13;;;;;;;;;2.25;2.25;;;;;9.21;55.39;101870.03;2079456;28;48554;-56
2022/02/05 05:43:33;;;;;;;;;1.50;1.50;;;;;9.21;55.34;101869.16;2080340;28;47941;-55
2022/02/05 05:48:16;;;;;;;;;4.25;2.00;;;;;9.18;55.52;101871.81;2089100;28;48370;-52
2022/02/05 05:49:19;;;;;;;;;1.00;1.00;;;;;9.18;55.56;101861.22;2079731;28;47798;-56
2022/02/05 05:51:40;;;;;;;;;3.50;2.50;;;;;9.19;55.65;101868.28;2082773;28;47905;-56
2022/02/05 05:52:41;;;;;;;;;3.00;3.00;;;;;9.17;55.48;101859.44;2089245;28;48002;-55
2022/02/05 05:53:41;;;;;;;;;2.00;2.00;;;;;9.17;55.72;101870.03;2088325;28;47026;-56
2022/02/05 05:54:42;;;;;;;;;1.00;1.00;;;;;9.16;55.63;101870.94;2088414;28;47934;-57
2022/02/05 05:55:47;;;;;;;;;1.67;1.67;;;;;9.14;55.67;101874.44;2089069;28;47546;-53
2022/02/05 05:56:48;;;;;;;;;2.25;2.00;;;;;9.12;55.73;101870.00;2088822;28;47785;-54
2022/02/05 05:57:48;;;;;;;;;2.00;2.00;;;;;9.12;55.68;101872.66;2089082;28;47848;-55
2022/02/05 05:58:50;;;;;;;;;1.00;1.00;;;;;9.11;55.84;101869.13;2089142;28;47989;-55
2022/02/05 05:59:50;;;;;;;;;2.00;2.00;;;;;9.10;55.72;101867.38;2071030;28;48141;-56
2022/02/05 06:00:50;;;;;;;;;2.67;2.67;;;;;9.09;55.80;101873.53;2069550;28;47551;-57
2022/02/05 06:01:51;;;;;;;;;2.00;2.00;;;;;9.09;55.75;101870.88;2071441;28;47329;-55
2022/02/05 06:02:51;;;;;;;;;3.33;2.67;;;;;9.09;55.70;101875.31;2071800;28;48293;-53
2022/02/05 06:03:52;;;;;;;;;3.00;1.67;;;;;9.09;56.00;101872.66;2071452;28;47292;-55
2022/02/05 06:04:52;;;;;;;;;2.00;2.00;;;;;9.09;55.79;101867.38;2071538;28;48068;-53
2022/02/05 06:05:53;;;;;;;;;2.00;2.00;;;;;9.10;55.82;101880.59;2071397;28;48264;-56
2022/02/05 06:06:53;;;;;;;;;2.00;2.00;;;;;9.09;55.91;101875.31;2071587;28;48355;-54
2022/02/05 06:07:53;;;;;;;;;1.00;1.00;;;;;9.09;56.00;101873.53;2071355;28;47621;-56
2022/02/05 06:08:54;;;;;;;;;1.67;1.33;;;;;9.08;56.02;101876.19;2071250;28;47727;-57
2022/02/05 06:09:54;;;;;;;;;1.00;1.00;;;;;9.09;55.75;101883.25;2071455;28;47332;-55
2022/02/05 06:10:55;;;;;;;;;1.00;1.00;;;;;9.07;55.93;101885.91;2071541;28;47396;-56
2022/02/05 06:11:55;;;;;;;;;4.67;3.00;;;;;9.07;55.74;101885.00;2071405;28;47155;-57
2022/02/05 06:12:56;;;;;;;;;2.00;2.00;;;;;9.07;55.97;101883.25;2071489;28;48408;-55
2022/02/05 06:13:56;;;;;;;;;1.00;1.00;;;;;9.05;56.09;101882.38;2054881;28;47007;-53
2022/02/05 06:14:59;;;;;;;;;4.67;3.33;;;;;9.05;56.06;101885.00;2055030;28;47799;-55
2022/02/05 06:15:59;;;;;;;;;2.00;2.00;;;;;9.04;55.99;101888.53;2071607;28;47494;-52
2022/02/05 06:17:06;;;;;;;;;2.00;2.00;;;;;9.04;56.08;101883.25;2071449;28;48040;-53
2022/02/05 06:18:08;;;;;;;;;1.75;1.75;;;;;9.04;56.18;101885.00;2071287;28;47122;-55
2022/02/05 06:19:08;;;;;;;;;0.00;0.00;;;;;9.03;56.11;101881.47;2076485;28;47935;-56
2022/02/05 06:20:09;;;;;;;;;1.33;1.33;;;;;9.04;56.18;101885.00;2073736;28;47388;-56
2022/02/05 06:21:10;;;;;;;;;2.00;1.00;;;;;9.03;56.20;101881.47;2071327;28;47151;-55
2022/02/05 06:22:10;;;;;;;;;2.00;2.00;;;;;9.03;55.99;101886.78;2071546;28;47450;-55
2022/02/05 06:23:10;;;;;;;;;2.00;2.00;;;;;9.02;56.18;101884.09;2062619;28;47928;-54
2022/02/05 06:24:11;;;;;;;;;3.00;3.00;;;;;9.03;55.96;101885.91;2063385;28;46076;-55
2022/02/05 06:25:11;;;;;;;;;1.67;1.67;;;;;9.02;56.13;101892.97;2071032;28;47141;-55
2022/02/05 06:26:12;;;;;;;;;2.00;0.67;;;;;9.03;56.22;101894.72;2071420;28;47546;-57
2022/02/05 06:27:12;;;;;;;;;2.33;2.00;;;;;9.02;56.14;101895.59;2071435;28;47651;-57
2022/02/05 06:28:15;;;;;;;;;1.67;1.67;;;;;9.03;56.22;101901.78;2071523;28;47748;-55
2022/02/05 06:29:16;;;;;;;;;2.50;2.50;;;;;9.02;56.38;101902.63;2071406;28;47890;-55
2022/02/05 06:30:17;;;;;;;;;1.00;1.00;;;;;9.01;56.33;101899.09;2071243;28;48153;-57
2022/02/05 06:31:17;;;;;;;;;1.33;1.00;;;;;9.02;56.37;101902.63;2075295;28;48123;-53
2022/02/05 06:32:17;;;;;;;;;3.67;2.67;;;;;9.00;56.47;101907.03;2079862;28;47692;-55
2022/02/05 06:33:18;;;;;;;;;3.33;3.33;;;;;9.01;56.26;101900.88;2079620;28;48123;-56
2022/02/05 06:34:18;;;;;;;;;5.00;3.33;;;;;8.99;56.32;101903.50;2083727;28;47622;-56
2022/02/05 06:35:20;;;;;;;;;2.00;2.00;;;;;9.00;56.49;101907.03;2080398;28;47583;-56
2022/02/05 06:36:20;;;;;;;;;2.50;2.50;;;;;9.00;56.28;101902.63;2071718;28;47839;-55
2022/02/05 06:37:20;;;;;;;;;1.33;1.33;;;;;9.00;56.53;101904.41;2072208;28;47285;-56
2022/02/05 06:38:21;;;;;;;;;3.67;2.00;;;;;9.00;56.47;101899.09;2086345;28;47768;-55
2022/02/05 06:39:22;;;;;;;;;2.00;2.00;;;;;9.01;56.43;101908.81;2088371;28;47381;-54
2022/02/05 06:40:22;;;;;;;;;3.00;3.00;;;;;9.01;56.59;101906.16;2088661;28;47757;-56
2022/02/05 06:41:23;;;;;;;;;2.00;2.00;;;;;8.99;56.60;101906.16;2088923;28;47646;-56
2022/02/05 06:42:23;;;;;;;;;2.00;2.00;;;;;8.99;56.86;101913.22;2088787;28;47670;-52
2022/02/05 06:43:24;;;;;;;;;1.00;1.00;;;;;8.97;56.56;101907.91;2088463;28;47416;-56
2022/02/05 06:44:24;;;;;;;;;2.00;2.00;;;;;8.97;56.63;101913.22;2080756;28;47500;-53
2022/02/05 06:45:25;;;;;;;;;1.00;1.00;;;;;8.97;56.60;101912.34;2081131;28;47189;-53
2022/02/05 06:46:25;;;;;;;;;2.00;2.00;;;;;8.97;56.79;101915.88;2070945;28;48178;-53
2022/02/05 06:47:26;;;;;;;;;1.33;1.33;;;;;8.97;56.63;101913.22;2071053;28;47461;-55
2022/02/05 06:48:26;;;;;;;;;3.33;2.00;;;;;8.96;56.76;101906.16;2071160;28;48031;-56
2022/02/05 06:49:30;;;;;;;;;3.33;3.33;;;;;8.97;56.94;101917.63;2071214;28;47792;-56
2022/02/05 06:50:30;;;;;;;;;3.00;2.25;;;;;8.98;56.66;101914.97;2071151;28;48177;-57
2022/02/05 06:51:30;;;;;;;;;2.00;2.00;;;;;8.98;56.87;101917.63;2071412;28;47649;-58
2022/02/05 06:52:31;;;;;;;;;3.67;1.67;;;;;8.98;56.74;101920.28;2070965;28;48428;-55
2022/02/05 06:53:31;;;;;;;;;2.33;2.33;;;;;9.00;56.77;101926.47;2071047;28;47960;-54
2022/02/05 06:54:32;;;;;;;;;2.00;2.00;;;;;9.00;56.69;101923.81;2071030;28;47923;-57
2022/02/05 06:55:32;;;;;;;;;1.33;1.33;;;;;9.01;56.83;101930.88;2071140;28;47645;-55
2022/02/05 06:56:32;;;;;;;;;1.67;1.67;;;;;9.01;56.90;101925.56;2070930;28;47318;-55
2022/02/05 06:57:33;;;;;;;;;2.00;1.00;;;;;9.01;56.74;101933.53;2071104;28;48197;-55
2022/02/05 06:58:33;;;;;;;;;1.00;1.00;;;;;9.02;56.79;101937.97;2071189;28;47523;-55
2022/02/05 06:59:34;;;;;;;;;2.00;2.00;;;;;9.02;56.93;101950.28;2071716;28;47557;-55
2022/02/05 07:00:34;;;;;;;;;1.33;1.33;;;;;9.03;56.82;101949.44;2071918;28;48307;-57
2022/02/05 07:01:35;;;;;;;;;3.00;2.00;;;;;9.03;57.07;101941.50;2071219;28;47217;-58
2022/02/05 07:02:35;;;;;;;;;3.00;3.00;;;;;9.04;56.78;101946.78;2071293;28;47390;-55
2022/02/05 07:03:36;;;;;;;;;4.67;3.00;;;;;9.05;56.85;101942.38;2071462;28;48143;-57